Terminal Aerodrome Forecast
Issued by NWS

Home | Current Version | Previous Version | Text Only | Print | Product List | Glossary On
Versions: 1 2 3 4 5 6 7 8 9 10 11 12
000
FTUS46 KSGX 051725
TAFONT
TAF
KONT 051725Z 0518/0624 VRB04KT P6SM SKC
     FM052200 35009KT P6SM SKC
     FM060400 03006KT P6SM SKC
     FM061200 04005KT P6SM SKC WS015/02030KT=

USA.gov is the U.S. government's official web portal to all federal, state and local government web resources and services.